MROC/SJO METAR and TAF weather

Enter ICAO airport designator
Station Type Date Time Source
MROC METAR 2021/08/04 18:00 UTC NOAA

MROC 041800Z 24008KT 210V300 9999 SCT040 27/22 A3004 NOSIG


Station Type Date Time Source
MROC Decoded METAR 2021/08/04 18:00 UTC NOAA

Juan Santamaria, Costa Rica (MROC) 10-00N 084-13W 939M
Aug 04, 2021 - 02:00 PM EDT / 2021.08.04 1800 UTC
Wind: from the WSW (240 degrees) at 9 MPH (8 KT) (direction variable):0
Visibility: greater than 7 mile(s):0
Sky conditions: partly cloudy
Temperature: 80 F (27 C)
Dew Point: 71 F (22 C)
Relative Humidity: 74%
Pressure (altimeter): 30.04 in. Hg (1017 hPa)
ob: MROC 041800Z 24008KT 210V300 9999 SCT040 27/22 A3004 NOSIG
cycle: 18

Station Type Date Time Source
MROC TAF 2021/08/04 18:15 UTC NOAA

TAF TAF MROC 041700Z 0418/0518 24007KT 9999 SCT040 TX28/0418Z TN19/0510Z
TEMPO 0419/0422 5000 TSRA SCT015CB BKN030
TEMPO 0423/0502 VRB02KT RA
BECMG 0503/0505 07005KT
BECMG 0515/0517 25006KT

Example: see airport list